createdAt,value
2017-07-10T00:02:07.923Z,12.50
2017-07-10T00:04:35.493Z,12.63
2017-07-10T00:07:03.049Z,13.37
2017-07-10T00:09:30.625Z,13.70
2017-07-10T00:11:58.067Z,14.57
2017-07-10T00:14:26.758Z,13.77
2017-07-10T00:16:54.315Z,14.87
2017-07-10T00:19:22.369Z,14.00
2017-07-10T00:21:49.857Z,13.90
2017-07-10T00:24:17.404Z,13.40
2017-07-10T00:26:45.003Z,14.07
2017-07-10T00:29:12.876Z,13.73
2017-07-10T00:31:40.418Z,14.27
2017-07-10T00:34:08.009Z,13.90
2017-07-10T00:36:35.504Z,13.97
2017-07-10T00:39:07.511Z,13.70
2017-07-10T00:41:35.124Z,14.77
2017-07-10T00:44:02.580Z,14.00
2017-07-10T00:46:31.110Z,13.87
2017-07-10T00:48:58.600Z,14.03
2017-07-10T00:51:26.071Z,15.20
2017-07-10T00:53:53.555Z,15.30
2017-07-10T00:56:21.163Z,15.13
2017-07-10T00:58:48.655Z,14.90
2017-07-10T01:01:16.583Z,14.60
2017-07-10T01:03:44.118Z,14.60
2017-07-10T01:06:11.661Z,14.13
2017-07-10T01:08:39.142Z,14.60
2017-07-10T01:11:07.475Z,14.60
2017-07-10T01:13:35.232Z,15.37
2017-07-10T01:16:02.847Z,15.13
2017-07-10T01:18:34.569Z,15.27
2017-07-10T01:21:02.123Z,15.47
2017-07-10T01:23:29.630Z,15.77
2017-07-10T01:25:57.505Z,17.37
2017-07-10T01:28:25.064Z,16.57
2017-07-10T01:30:52.515Z,16.47
2017-07-10T01:33:19.965Z,16.40
2017-07-10T01:35:47.465Z,16.93
2017-07-10T01:38:16.676Z,17.33
2017-07-10T01:40:44.248Z,17.40
2017-07-10T01:43:11.749Z,16.80
2017-07-10T01:45:39.408Z,18.27
2017-07-10T01:48:06.903Z,17.73
2017-07-10T01:50:34.462Z,16.63
2017-07-10T01:53:01.919Z,16.87
2017-07-10T01:55:30.240Z,17.13
2017-07-10T01:57:58.491Z,16.03
2017-07-10T02:00:25.940Z,16.87
2017-07-10T02:02:53.415Z,16.30
2017-07-10T02:05:20.911Z,17.70
2017-07-10T02:07:49.051Z,16.90
2017-07-10T02:10:17.202Z,16.77
2017-07-10T02:12:44.977Z,16.60
2017-07-10T02:15:12.492Z,16.77
2017-07-10T02:17:39.960Z,17.30
2017-07-10T02:20:08.708Z,15.90
2017-07-10T02:22:36.239Z,15.23
2017-07-10T02:25:04.463Z,16.97
2017-07-10T02:27:32.234Z,16.93
2017-07-10T02:29:59.744Z,17.03
2017-07-10T02:32:27.220Z,16.40
2017-07-10T02:34:55.716Z,16.97
2017-07-10T02:37:23.223Z,16.63
2017-07-10T02:39:50.680Z,16.90
2017-07-10T02:42:18.191Z,17.60
2017-07-10T02:44:46.431Z,18.07
2017-07-10T02:47:14.075Z,17.70
2017-07-10T02:49:41.630Z,16.87
2017-07-10T02:52:09.723Z,17.20
2017-07-10T02:54:37.192Z,17.63
2017-07-10T02:57:04.831Z,17.10
2017-07-10T02:59:33.152Z,17.93
2017-07-10T03:02:01.369Z,17.33
2017-07-10T03:04:28.836Z,17.70
2017-07-10T03:06:56.375Z,17.63
2017-07-10T03:09:24.308Z,17.50
2017-07-10T03:11:51.772Z,17.90
2017-07-10T03:14:19.292Z,17.60
2017-07-10T03:16:46.812Z,16.20
2017-07-10T03:19:14.296Z,16.70
2017-07-10T03:21:42.524Z,17.80
2017-07-10T03:24:10.044Z,17.87
2017-07-10T03:26:37.599Z,17.40
2017-07-10T03:29:05.060Z,16.57
2017-07-10T03:31:32.620Z,17.30
2017-07-10T03:34:00.256Z,16.07
2017-07-10T03:36:28.532Z,16.23
2017-07-10T03:38:56.008Z,16.97
2017-07-10T03:41:23.528Z,16.70
2017-07-10T03:43:51.845Z,16.40
2017-07-10T03:46:19.355Z,17.07
2017-07-10T03:48:46.832Z,17.80
2017-07-10T03:51:14.317Z,17.90
2017-07-10T03:53:41.811Z,17.93
2017-07-10T03:56:09.268Z,17.60
2017-07-10T03:58:37.921Z,18.03
2017-07-10T04:01:05.826Z,18.50
2017-07-10T04:03:33.464Z,18.83
2017-07-10T04:06:00.960Z,19.37
2017-07-10T04:08:28.428Z,20.67
2017-07-10T04:10:56.044Z,20.33
2017-07-10T04:13:23.674Z,20.40
2017-07-10T04:15:58.443Z,21.17
2017-07-10T04:18:25.982Z,21.10
2017-07-10T04:21:02.286Z,22.30
2017-07-10T04:23:37.243Z,20.77
2017-07-10T04:26:08.200Z,20.50
2017-07-10T04:28:38.263Z,19.10
2017-07-10T04:31:05.899Z,21.23
2017-07-10T04:33:35.412Z,21.93
2017-07-10T04:36:04.269Z,21.97
2017-07-10T04:38:33.560Z,22.97
2017-07-10T04:41:01.933Z,22.13
2017-07-10T04:43:31.445Z,23.97
2017-07-10T04:46:00.473Z,24.33
2017-07-10T04:48:30.164Z,24.00
2017-07-10T04:50:59.455Z,22.47
2017-07-10T04:53:33.968Z,22.47
2017-07-10T04:56:02.419Z,29.63
2017-07-10T04:58:31.094Z,24.57
2017-07-10T05:01:05.425Z,24.27
2017-07-10T05:03:34.098Z,23.20
2017-07-10T05:06:01.798Z,25.00
2017-07-10T05:08:29.276Z,24.27
2017-07-10T05:10:56.833Z,26.83
2017-07-10T05:13:25.300Z,24.70
2017-07-10T05:15:53.435Z,26.10
2017-07-10T05:18:20.900Z,29.43
2017-07-10T05:23:22.563Z,28.00
2017-07-10T05:25:50.239Z,29.63
2017-07-10T05:28:17.785Z,27.40
2017-07-10T05:30:45.426Z,28.87
2017-07-10T05:33:16.776Z,29.17
2017-07-10T05:35:44.703Z,30.57
2017-07-10T05:38:17.426Z,29.13
2017-07-10T05:40:46.202Z,28.57
2017-07-10T05:43:13.740Z,30.30
2017-07-10T05:45:42.195Z,30.23
2017-07-10T05:48:11.684Z,31.83
2017-07-10T05:50:39.458Z,32.37
2017-07-10T05:53:07.007Z,34.33
2017-07-10T05:55:35.630Z,34.30
2017-07-10T05:58:03.150Z,35.33
2017-07-10T06:00:30.968Z,29.60
2017-07-10T06:05:41.022Z,28.67
2017-07-10T06:08:08.668Z,25.90
2017-07-10T06:10:37.136Z,25.53
2017-07-10T06:13:04.690Z,24.80
2017-07-10T06:15:32.811Z,24.63
2017-07-10T06:18:01.211Z,22.47
2017-07-10T06:20:29.045Z,24.60
2017-07-10T06:22:56.595Z,24.83
2017-07-10T06:25:24.332Z,23.80
2017-07-10T06:27:51.931Z,24.60
2017-07-10T06:30:20.543Z,24.97
2017-07-10T06:32:48.426Z,23.30
2017-07-10T06:35:17.905Z,21.30
2017-07-10T06:37:47.060Z,21.27
2017-07-10T06:40:16.303Z,21.70
2017-07-10T06:42:44.271Z,21.90
2017-07-10T06:45:15.693Z,25.60
2017-07-10T06:47:47.573Z,29.40
2017-07-10T06:50:15.066Z,27.83
2017-07-10T06:52:43.799Z,28.93
2017-07-10T06:55:11.537Z,30.40
2017-07-10T06:57:41.146Z,28.50
2017-07-10T07:00:15.018Z,27.00
2017-07-10T07:05:18.674Z,29.80
2017-07-10T07:07:46.232Z,29.37
2017-07-10T07:10:13.906Z,29.80
2017-07-10T07:12:44.572Z,30.37
2017-07-10T07:15:13.067Z,29.10
2017-07-10T07:17:41.489Z,30.17
2017-07-10T07:20:10.195Z,45.63
2017-07-10T07:22:41.726Z,29.13
2017-07-10T07:25:10.691Z,30.73
2017-07-10T07:27:40.128Z,30.93
2017-07-10T07:30:07.722Z,30.17
2017-07-10T07:32:36.175Z,29.70
2017-07-10T07:35:07.497Z,35.23
2017-07-10T07:37:37.265Z,30.30
2017-07-10T07:40:05.208Z,27.40
2017-07-10T07:42:36.881Z,27.97
2017-07-10T07:45:06.339Z,26.63
2017-07-10T07:47:36.189Z,25.20
2017-07-10T07:50:04.909Z,23.70
2017-07-10T07:52:33.294Z,24.20
2017-07-10T07:55:02.346Z,24.40
2017-07-10T07:57:29.910Z,24.70
2017-07-10T07:59:57.514Z,24.37
2017-07-10T08:02:26.463Z,22.13
2017-07-10T08:04:59.466Z,21.00
2017-07-10T08:07:28.748Z,22.20
2017-07-10T08:09:59.980Z,22.87
2017-07-10T08:12:33.382Z,24.33
2017-07-10T08:15:02.902Z,22.33
2017-07-10T08:17:37.834Z,21.57
2017-07-10T08:20:06.607Z,20.60
2017-07-10T08:34:11.468Z,19.63
2017-07-10T08:36:41.886Z,21.37
2017-07-10T08:39:09.582Z,19.40
2017-07-10T08:41:39.623Z,18.13
2017-07-10T08:44:10.917Z,20.50
2017-07-10T08:46:39.575Z,20.33
2017-07-10T08:49:07.103Z,17.90
2017-07-10T08:51:35.631Z,17.70
2017-07-10T08:54:03.539Z,17.77
2017-07-10T08:56:33.452Z,20.57
2017-07-10T08:59:11.877Z,25.30
2017-07-10T09:04:25.426Z,19.07
2017-07-10T09:06:58.240Z,17.57
2017-07-10T09:09:30.611Z,20.03
2017-07-10T09:11:59.663Z,18.77
2017-07-10T09:14:30.238Z,18.87
2017-07-10T09:17:06.702Z,18.23
2017-07-10T09:19:42.220Z,19.03
2017-07-10T09:22:16.217Z,19.20
2017-07-10T09:24:48.431Z,17.47
2017-07-10T09:27:17.731Z,19.10
2017-07-10T09:30:02.095Z,19.57
2017-07-10T09:32:30.275Z,18.50
2017-07-10T09:34:59.971Z,18.43
2017-07-10T09:37:28.477Z,17.50
2017-07-10T09:39:58.899Z,18.70
2017-07-10T09:42:28.040Z,18.07
2017-07-10T09:44:56.830Z,18.30
2017-07-10T09:47:34.554Z,22.40
2017-07-10T09:50:10.867Z,23.20
2017-07-10T09:52:43.287Z,21.40
2017-07-10T09:55:17.722Z,21.40
2017-07-10T09:57:45.597Z,22.00
2017-07-10T10:00:13.184Z,19.97
2017-07-10T10:02:48.253Z,20.50
2017-07-10T10:05:19.038Z,20.40
2017-07-10T10:07:48.474Z,22.23
2017-07-10T10:10:17.373Z,23.47
2017-07-10T10:12:48.028Z,24.77
2017-07-10T10:15:17.750Z,26.73
2017-07-10T10:17:46.513Z,25.73
2017-07-10T10:20:22.011Z,25.03
2017-07-10T10:22:53.825Z,27.10
2017-07-10T10:25:25.154Z,25.67
2017-07-10T10:27:56.006Z,28.20
2017-07-10T10:30:33.594Z,31.80
2017-07-10T10:33:03.287Z,29.03
2017-07-10T10:35:31.197Z,27.70
2017-07-10T10:38:02.053Z,30.07
2017-07-10T10:40:32.060Z,30.77
2017-07-10T10:42:59.982Z,30.23
2017-07-10T10:45:29.613Z,30.30
2017-07-10T11:13:02.676Z,30.77
2017-07-10T11:18:06.911Z,31.00
2017-07-10T11:20:41.750Z,29.97
2017-07-10T11:23:10.277Z,30.50
2017-07-10T11:25:40.391Z,34.70
2017-07-10T11:28:22.185Z,30.00
2017-07-10T11:30:50.613Z,31.83
2017-07-10T11:33:21.723Z,29.90
2017-07-10T11:35:57.385Z,29.60
2017-07-10T11:38:31.294Z,31.10
2017-07-10T11:41:11.976Z,31.10
2017-07-10T11:43:39.581Z,30.63
2017-07-10T11:46:08.305Z,31.50
2017-07-10T11:48:53.673Z,32.43
2017-07-10T11:51:26.125Z,32.90
2017-07-10T11:54:03.971Z,31.90
2017-07-10T11:56:31.552Z,31.67
2017-07-10T11:58:59.185Z,30.27
2017-07-10T12:01:32.437Z,29.17
2017-07-10T12:04:02.915Z,28.87
2017-07-10T12:06:34.241Z,29.23
2017-07-10T12:09:06.008Z,26.53
2017-07-10T12:11:34.413Z,25.53
2017-07-10T12:14:02.984Z,26.67
2017-07-10T12:16:34.469Z,26.50
2017-07-10T12:19:04.571Z,24.87
2017-07-10T12:21:33.507Z,21.67
2017-07-10T12:24:02.977Z,24.43
2017-07-10T12:26:31.352Z,21.63
2017-07-10T12:28:59.149Z,21.50
2017-07-10T12:31:29.579Z,23.07
2017-07-10T12:33:58.385Z,20.97
2017-07-10T12:36:27.327Z,15.43
2017-07-10T12:38:58.143Z,16.73
2017-07-10T12:41:28.222Z,14.03
2017-07-10T12:43:55.802Z,11.87
2017-07-10T12:46:23.598Z,10.33
2017-07-10T12:48:53.311Z,11.47
2017-07-10T12:51:22.857Z,9.73
2017-07-10T12:54:06.861Z,9.40
2017-07-10T12:56:34.494Z,11.30
2017-07-10T12:59:02.956Z,10.73
2017-07-10T13:01:31.333Z,11.83
2017-07-10T13:03:58.962Z,14.17
2017-07-10T13:06:28.301Z,15.30
2017-07-10T13:08:56.751Z,14.70
2017-07-10T13:11:42.958Z,13.27
2017-07-10T13:14:14.613Z,15.40
2017-07-10T13:17:00.252Z,14.00
2017-07-10T13:19:43.486Z,16.97
2017-07-10T13:22:16.630Z,16.50
2017-07-10T13:25:06.055Z,16.20
2017-07-10T13:30:11.983Z,20.00
2017-07-10T13:38:40.090Z,22.77
2017-07-10T13:41:16.310Z,24.60
2017-07-10T13:43:55.038Z,23.80
2017-07-10T13:46:47.479Z,25.47
2017-07-10T13:49:15.219Z,24.90
2017-07-10T13:51:46.975Z,25.40
2017-07-10T13:54:19.006Z,23.47
2017-07-10T13:56:56.397Z,21.07
2017-07-10T13:59:31.743Z,21.90
2017-07-10T14:02:05.461Z,18.00
2017-07-10T14:04:38.068Z,16.10
2017-07-10T14:07:07.673Z,17.00
2017-07-10T14:15:56.333Z,11.00
2017-07-10T14:18:24.661Z,10.27
2017-07-10T14:20:54.125Z,10.40
2017-07-10T14:23:21.769Z,9.30
2017-07-10T14:25:50.197Z,9.33
2017-07-10T14:28:17.826Z,7.70
2017-07-10T14:30:51.019Z,7.50
2017-07-10T14:33:18.765Z,7.33
2017-07-10T14:38:28.956Z,7.30
2017-07-10T14:41:00.501Z,8.00
2017-07-10T14:43:29.119Z,7.10
2017-07-10T14:45:59.539Z,7.33
2017-07-10T14:48:30.464Z,6.83
2017-07-10T14:50:59.592Z,8.03
2017-07-10T14:53:33.431Z,8.43
2017-07-10T14:56:03.968Z,8.67
2017-07-10T15:01:07.773Z,9.23
2017-07-10T15:03:37.692Z,10.73
2017-07-10T15:06:06.207Z,9.47
2017-07-10T15:08:36.716Z,10.43
2017-07-10T15:11:04.399Z,9.83
2017-07-10T15:13:41.442Z,7.67
2017-07-10T15:16:10.807Z,8.00
2017-07-10T15:22:14.176Z,9.20
2017-07-10T15:24:45.157Z,9.17
2017-07-10T15:27:20.482Z,9.30
2017-07-10T15:29:49.918Z,9.07
2017-07-10T15:32:25.575Z,10.00
2017-07-10T15:34:54.560Z,9.50
2017-07-10T15:37:42.586Z,9.40
2017-07-10T15:40:10.515Z,12.57
2017-07-10T15:42:41.699Z,10.80
2017-07-10T15:45:10.388Z,12.00
2017-07-10T16:01:32.330Z,18.13
2017-07-10T16:04:02.450Z,14.23
2017-07-10T16:06:30.087Z,15.20
2017-07-10T16:08:59.417Z,11.30
2017-07-10T16:11:29.209Z,11.30
2017-07-10T16:14:00.649Z,13.73
2017-07-10T16:16:30.118Z,12.07
2017-07-10T16:18:59.092Z,13.93
2017-07-10T16:21:26.814Z,12.37
2017-07-10T16:23:54.389Z,11.07
2017-07-10T16:26:26.956Z,16.97
2017-07-10T16:28:56.151Z,12.77
2017-07-10T16:31:24.812Z,13.13
2017-07-10T16:33:53.287Z,12.93
2017-07-10T16:36:28.052Z,14.20
2017-07-10T16:38:59.287Z,13.17
2017-07-10T16:41:27.077Z,14.70
2017-07-10T16:43:55.173Z,14.63
2017-07-10T16:46:24.999Z,13.87
2017-07-10T16:48:58.628Z,13.80
2017-07-10T16:51:34.300Z,13.63
2017-07-10T16:54:15.506Z,14.37
2017-07-10T16:57:34.873Z,20.43
2017-07-10T17:00:04.261Z,18.60
2017-07-10T17:02:36.319Z,20.10
2017-07-10T17:05:07.472Z,21.00
2017-07-10T17:07:43.123Z,24.60
2017-07-10T17:10:15.686Z,26.50
2017-07-10T17:12:50.783Z,26.30
2017-07-10T17:15:29.922Z,26.23
2017-07-10T17:17:58.697Z,25.13
2017-07-10T17:20:26.253Z,25.10
2017-07-10T17:22:54.545Z,26.20
2017-07-10T17:25:25.546Z,28.37
2017-07-10T17:27:54.917Z,23.50
2017-07-10T17:30:22.615Z,27.17
2017-07-10T17:32:50.349Z,30.40
2017-07-10T17:35:18.048Z,32.00
2017-07-10T17:37:46.739Z,31.87
2017-07-10T17:40:16.319Z,29.67
2017-07-10T17:42:47.764Z,36.00
2017-07-10T17:45:17.128Z,34.20
2017-07-10T17:47:49.978Z,24.50
2017-07-10T17:50:17.857Z,25.33
2017-07-10T17:52:45.369Z,25.30
2017-07-10T17:55:12.913Z,25.97
2017-07-10T17:57:41.454Z,29.10
2017-07-10T18:00:11.375Z,30.50
2017-07-10T18:02:39.277Z,32.00
2017-07-10T18:05:06.857Z,32.43
2017-07-10T18:07:36.571Z,35.10
2017-07-10T18:10:08.885Z,35.30
2017-07-10T18:12:37.470Z,39.97
2017-07-10T18:15:12.872Z,37.60
2017-07-10T18:17:48.173Z,34.70
2017-07-10T18:20:19.606Z,39.03
2017-07-10T18:22:48.773Z,47.57
2017-07-10T18:25:17.161Z,28.10
2017-07-10T18:30:33.186Z,46.17
2017-07-10T18:33:02.565Z,43.60
2017-07-10T18:35:39.635Z,39.90
2017-07-10T18:40:45.426Z,35.53
2017-07-10T18:43:18.729Z,26.40
2017-07-10T18:45:47.199Z,32.63
2017-07-10T18:48:15.927Z,30.47
2017-07-10T18:50:45.137Z,29.23
2017-07-10T18:55:57.460Z,25.10
2017-07-10T19:00:59.983Z,22.70
2017-07-10T19:03:31.345Z,23.90
2017-07-10T19:05:58.906Z,24.80
2017-07-10T19:11:04.257Z,25.70
2017-07-10T19:13:33.260Z,25.50
2017-07-10T19:16:02.242Z,24.20
2017-07-10T19:18:41.713Z,24.33
2017-07-10T19:21:10.559Z,24.57
2017-07-10T19:23:52.577Z,25.73
2017-07-10T19:26:33.241Z,26.50
2017-07-10T19:29:12.171Z,25.70
2017-07-10T19:32:00.017Z,25.20
2017-07-10T19:34:30.905Z,23.70
2017-07-10T19:37:03.985Z,23.77
2017-07-10T19:39:39.977Z,22.33
2017-07-10T19:45:02.779Z,19.53
2017-07-10T19:47:38.652Z,20.10
2017-07-10T19:50:10.258Z,21.77
2017-07-10T19:52:39.044Z,23.70
2017-07-10T19:55:07.099Z,22.60
2017-07-10T19:57:44.572Z,24.90
2017-07-10T20:00:15.165Z,21.90
2017-07-10T20:02:50.044Z,17.90
2017-07-10T20:05:17.547Z,18.87
2017-07-10T20:07:46.884Z,16.80
2017-07-10T20:10:15.755Z,17.20
2017-07-10T20:12:45.072Z,15.60
2017-07-10T20:15:20.334Z,14.80
2017-07-10T20:17:49.166Z,14.50
2017-07-10T20:20:16.927Z,12.23
2017-07-10T20:23:00.291Z,11.37
2017-07-10T20:25:29.291Z,10.57
2017-07-10T20:33:44.603Z,10.07
2017-07-10T20:36:24.194Z,10.03
2017-07-10T20:38:54.851Z,10.63
2017-07-10T20:41:22.669Z,10.50
2017-07-10T20:43:51.472Z,10.90
2017-07-10T20:46:23.084Z,17.37
2017-07-10T20:48:53.893Z,13.20
2017-07-10T20:51:21.397Z,11.43
2017-07-10T20:53:49.818Z,12.70
2017-07-10T20:56:17.518Z,11.67
2017-07-10T20:58:45.213Z,10.13
2017-07-10T21:01:12.812Z,10.23
2017-07-10T21:03:42.174Z,11.80
2017-07-10T21:06:11.182Z,11.77
2017-07-10T21:08:39.095Z,11.70
2017-07-10T21:11:07.257Z,12.80
2017-07-10T21:13:43.571Z,11.93
2017-07-10T21:19:07.700Z,10.40
2017-07-10T21:21:38.512Z,11.30
2017-07-10T21:24:08.627Z,12.03
2017-07-10T21:26:40.237Z,9.60
2017-07-10T21:29:12.087Z,9.80
2017-07-10T21:31:41.739Z,9.60
2017-07-10T21:37:12.267Z,10.60
2017-07-10T21:39:46.247Z,10.80
2017-07-10T21:42:15.384Z,11.80
2017-07-10T21:44:43.233Z,11.93
2017-07-10T21:47:11.693Z,14.73
2017-07-10T21:49:42.865Z,11.07
2017-07-10T21:52:20.756Z,12.40
2017-07-10T22:00:49.691Z,12.10
2017-07-10T22:03:22.362Z,12.10
2017-07-10T22:05:53.599Z,12.27
2017-07-10T22:08:22.900Z,11.77
2017-07-10T22:10:53.350Z,12.17
2017-07-10T22:13:22.700Z,11.80
2017-07-10T22:15:53.533Z,10.23
2017-07-10T22:18:21.557Z,9.30
2017-07-10T22:20:50.137Z,8.07
2017-07-10T22:23:18.495Z,7.30
2017-07-10T22:28:32.800Z,7.53
2017-07-10T22:31:00.297Z,7.50
2017-07-10T22:33:42.737Z,8.83
2017-07-10T22:36:10.903Z,8.47
2017-07-10T22:38:39.301Z,8.40
2017-07-10T22:41:06.828Z,7.20
2017-07-10T22:43:40.983Z,7.70
2017-07-10T22:46:08.573Z,7.03
2017-07-10T22:48:36.299Z,7.33
2017-07-10T22:51:04.367Z,6.93
2017-07-10T22:53:31.904Z,5.87
2017-07-10T22:55:59.370Z,6.07
2017-07-10T22:58:26.852Z,6.60
2017-07-10T23:00:54.518Z,6.20
2017-07-10T23:03:21.989Z,6.20
2017-07-10T23:05:49.559Z,5.80
2017-07-10T23:08:17.222Z,5.70
2017-07-10T23:10:45.518Z,5.20
2017-07-10T23:13:13.019Z,5.87
2017-07-10T23:15:40.528Z,5.80
2017-07-10T23:18:08.268Z,5.17
2017-07-10T23:20:35.841Z,5.57
2017-07-10T23:23:03.368Z,5.97
2017-07-10T23:25:30.812Z,6.00
2017-07-10T23:27:58.573Z,6.50
2017-07-10T23:30:26.093Z,6.27
2017-07-10T23:32:53.599Z,6.00
2017-07-10T23:35:21.352Z,6.67
2017-07-10T23:37:50.544Z,6.60
2017-07-10T23:40:17.999Z,6.90
2017-07-10T23:42:45.619Z,7.00
2017-07-10T23:45:13.293Z,6.57
2017-07-10T23:47:40.775Z,7.20
2017-07-10T23:50:08.252Z,7.17
2017-07-10T23:52:35.726Z,7.37
2017-07-10T23:55:03.186Z,7.13
2017-07-10T23:57:31.325Z,6.90
2017-07-10T23:59:59.399Z,6.90
